Vienna, Maryland
Current Conditions -  °F | °C
As of 2:16 PM on Monday 24 Nov 2014 (Local Time) from KCGE Reporting Station
Clear Clear  
Wind Chill: 72°   Ceiling: Unl
Heat Index: 72°   Visibility: 10mi
Dew Point: 55°   Wind: 14mph
Humidity: 57%   Direction: 170°S
Pressure: 29.67"   Gusts: 17mph
Location:  38.48°N, 75.82°W
Report Text: KCGE 241916Z AUTO 17012G15KT 10SM CLR 22/13 A2967 RMK AO1
Loading
Personal Weather Stations






























Interactive Weather Map New forecast layout! Learn more

10-Day Weather Forecast

Advertisements
Track Severe Weather on mobile